sensor_id;sensor_type;location;lat;lon;timestamp;pressure;altitude;pressure_sealevel;temperature;humidity
4469;BME280;2247;42.666;23.292;2024-01-15T00:00:43;93787.13;;;4.73;49.87
4469;BME280;2247;42.666;23.292;2024-01-15T00:03:12;93787.13;;;4.73;49.91
4469;BME280;2247;42.666;23.292;2024-01-15T00:05:38;93781.84;;;4.63;49.78
4469;BME280;2247;42.666;23.292;2024-01-15T00:08:05;93787.28;;;4.61;50.01
4469;BME280;2247;42.666;23.292;2024-01-15T00:10:33;93745.63;;;4.40;50.05
4469;BME280;2247;42.666;23.292;2024-01-15T00:13:00;93779.72;;;4.60;49.65
4469;BME280;2247;42.666;23.292;2024-01-15T00:15:27;93777.13;;;4.65;49.75
4469;BME280;2247;42.666;23.292;2024-01-15T00:17:57;93774.53;;;4.65;49.44
4469;BME280;2247;42.666;23.292;2024-01-15T00:20:24;93772.22;;;4.68;49.47
4469;BME280;2247;42.666;23.292;2024-01-15T00:22:51;93775.06;;;4.67;49.94
4469;BME280;2247;42.666;23.292;2024-01-15T00:25:18;93788.16;;;4.72;49.53
4469;BME280;2247;42.666;23.292;2024-01-15T00:27:45;93780.66;;;4.81;49.55
4469;BME280;2247;42.666;23.292;2024-01-15T00:30:13;93782.94;;;4.72;49.65
4469;BME280;2247;42.666;23.292;2024-01-15T00:32:40;93782.59;;;4.63;49.99
4469;BME280;2247;42.666;23.292;2024-01-15T00:35:09;93772.47;;;4.67;49.91
4469;BME280;2247;42.666;23.292;2024-01-15T00:37:36;93786.16;;;4.84;49.64
4469;BME280;2247;42.666;23.292;2024-01-15T00:40:04;93787.00;;;4.90;49.86
4469;BME280;2247;42.666;23.292;2024-01-15T00:42:31;93773.44;;;4.93;49.66
4469;BME280;2247;42.666;23.292;2024-01-15T00:44:58;93790.41;;;4.90;49.79
4469;BME280;2247;42.666;23.292;2024-01-15T00:47:25;93793.97;;;4.84;50.00
4469;BME280;2247;42.666;23.292;2024-01-15T00:49:52;93781.94;;;4.78;50.36
4469;BME280;2247;42.666;23.292;2024-01-15T00:52:21;93782.22;;;4.82;50.03
4469;BME280;2247;42.666;23.292;2024-01-15T00:54:48;93781.44;;;4.81;49.70
4469;BME280;2247;42.666;23.292;2024-01-15T00:57:16;93783.03;;;4.82;49.67
4469;BME280;2247;42.666;23.292;2024-01-15T00:59:44;93774.66;;;4.80;49.66
4469;BME280;2247;42.666;23.292;2024-01-15T01:02:13;93784.53;;;4.78;49.45
4469;BME280;2247;42.666;23.292;2024-01-15T01:04:40;93776.22;;;4.81;49.71
4469;BME280;2247;42.666;23.292;2024-01-15T01:07:07;93777.81;;;4.82;49.71
4469;BME280;2247;42.666;23.292;2024-01-15T01:09:35;93776.72;;;4.78;49.49
4469;BME280;2247;42.666;23.292;2024-01-15T01:12:03;93773.59;;;4.76;49.64
4469;BME280;2247;42.666;23.292;2024-01-15T01:14:30;93768.84;;;4.73;49.69
4469;BME280;2247;42.666;23.292;2024-01-15T01:16:56;93760.53;;;4.76;49.32
4469;BME280;2247;42.666;23.292;2024-01-15T01:19:24;93771.56;;;4.83;49.19
4469;BME280;2247;42.666;23.292;2024-01-15T01:21:52;93772.38;;;4.89;48.94
4469;BME280;2247;42.666;23.292;2024-01-15T01:24:18;93756.97;;;4.92;48.75
4469;BME280;2247;42.666;23.292;2024-01-15T01:26:47;93761.13;;;4.88;48.81
4469;BME280;2247;42.666;23.292;2024-01-15T01:29:14;93757.41;;;4.79;48.95
4469;BME280;2247;42.666;23.292;2024-01-15T01:31:44;93755.53;;;4.69;49.06
4469;BME280;2247;42.666;23.292;2024-01-15T01:34:14;93754.47;;;4.70;48.89
4469;BME280;2247;42.666;23.292;2024-01-15T01:36:41;93747.19;;;4.72;48.98
4469;BME280;2247;42.666;23.292;2024-01-15T01:39:08;93747.44;;;4.71;49.02
4469;BME280;2247;42.666;23.292;2024-01-15T01:41:36;93741.69;;;4.69;48.59
4469;BME280;2247;42.666;23.292;2024-01-15T01:44:04;93741.19;;;4.72;48.67
4469;BME280;2247;42.666;23.292;2024-01-15T01:46:31;93738.88;;;4.75;48.50
4469;BME280;2247;42.666;23.292;2024-01-15T01:48:59;93744.38;;;4.79;48.35
4469;BME280;2247;42.666;23.292;2024-01-15T01:51:31;93743.56;;;4.79;48.39
4469;BME280;2247;42.666;23.292;2024-01-15T01:53:58;93739.91;;;4.74;48.54
4469;BME280;2247;42.666;23.292;2024-01-15T01:56:26;93742.69;;;4.63;48.65
4469;BME280;2247;42.666;23.292;2024-01-15T01:58:53;93742.63;;;4.53;49.01
4469;BME280;2247;42.666;23.292;2024-01-15T02:01:22;93739.22;;;4.52;48.85
4469;BME280;2247;42.666;23.292;2024-01-15T02:03:49;93731.13;;;4.49;48.75
4469;BME280;2247;42.666;23.292;2024-01-15T02:06:16;93731.13;;;4.49;48.26
4469;BME280;2247;42.666;23.292;2024-01-15T02:08:43;93730.25;;;4.43;48.24
4469;BME280;2247;42.666;23.292;2024-01-15T02:11:10;93700.13;;;4.20;48.45
4469;BME280;2247;42.666;23.292;2024-01-15T02:13:38;93725.34;;;4.47;48.43
4469;BME280;2247;42.666;23.292;2024-01-15T02:16:06;93707.84;;;4.42;48.01
4469;BME280;2247;42.666;23.292;2024-01-15T02:18:41;93663.88;;;4.24;48.46
4469;BME280;2247;42.666;23.292;2024-01-15T02:21:09;93700.72;;;4.32;49.07
4469;BME280;2247;42.666;23.292;2024-01-15T02:23:37;93704.91;;;4.33;48.77
4469;BME280;2247;42.666;23.292;2024-01-15T02:26:05;93671.72;;;4.24;49.02
4469;BME280;2247;42.666;23.292;2024-01-15T02:28:33;93665.06;;;4.06;48.99
4469;BME280;2247;42.666;23.292;2024-01-15T02:31:00;93670.69;;;3.93;49.23
4469;BME280;2247;42.666;23.292;2024-01-15T02:33:27;93676.38;;;3.90;49.46
4469;BME280;2247;42.666;23.292;2024-01-15T02:35:55;93673.22;;;3.88;49.47
4469;BME280;2247;42.666;23.292;2024-01-15T02:38:21;93676.31;;;3.80;49.75
4469;BME280;2247;42.666;23.292;2024-01-15T02:40:50;93676.66;;;3.67;50.45
4469;BME280;2247;42.666;23.292;2024-01-15T02:43:17;93672.56;;;3.71;50.75
4469;BME280;2247;42.666;23.292;2024-01-15T02:45:45;93676.97;;;3.70;50.78
4469;BME280;2247;42.666;23.292;2024-01-15T02:48:12;93649.34;;;3.69;50.41
4469;BME280;2247;42.666;23.292;2024-01-15T02:50:39;93670.88;;;3.86;50.13
4469;BME280;2247;42.666;23.292;2024-01-15T02:53:06;93672.25;;;3.94;50.00
4469;BME280;2247;42.666;23.292;2024-01-15T02:55:33;93655.53;;;3.90;49.94
4469;BME280;2247;42.666;23.292;2024-01-15T02:58:02;93666.13;;;4.10;49.52
4469;BME280;2247;42.666;23.292;2024-01-15T03:00:29;93644.63;;;3.93;49.53
4469;BME280;2247;42.666;23.292;2024-01-15T03:02:56;93663.91;;;4.29;49.14
4469;BME280;2247;42.666;23.292;2024-01-15T03:05:23;93660.16;;;4.47;48.74
4469;BME280;2247;42.666;23.292;2024-01-15T03:07:50;93668.53;;;4.54;48.58
4469;BME280;2247;42.666;23.292;2024-01-15T03:10:17;93661.50;;;4.54;48.60
4469;BME280;2247;42.666;23.292;2024-01-15T03:12:44;93656.28;;;4.54;48.70
4469;BME280;2247;42.666;23.292;2024-01-15T03:15:12;93657.09;;;4.55;48.64
4469;BME280;2247;42.666;23.292;2024-01-15T03:17:41;93658.34;;;4.52;49.10
4469;BME280;2247;42.666;23.292;2024-01-15T03:20:09;93659.16;;;4.53;49.02
4469;BME280;2247;42.666;23.292;2024-01-15T03:22:36;93654.72;;;4.53;49.15
4469;BME280;2247;42.666;23.292;2024-01-15T03:25:03;93649.53;;;4.58;49.17
4469;BME280;2247;42.666;23.292;2024-01-15T03:27:30;93651.06;;;4.54;49.14
4469;BME280;2247;42.666;23.292;2024-01-15T03:29:57;93655.41;;;4.39;49.72
4469;BME280;2247;42.666;23.292;2024-01-15T03:32:26;93611.03;;;4.28;49.62
4469;BME280;2247;42.666;23.292;2024-01-15T03:34:53;93650.53;;;4.52;49.87
4469;BME280;2247;42.666;23.292;2024-01-15T03:37:21;93607.63;;;4.28;50.05
4469;BME280;2247;42.666;23.292;2024-01-15T03:39:48;93645.53;;;4.46;50.24
4469;BME280;2247;42.666;23.292;2024-01-15T03:42:15;93614.59;;;4.22;50.23
4469;BME280;2247;42.666;23.292;2024-01-15T03:44:43;93623.28;;;4.28;50.15
4469;BME280;2247;42.666;23.292;2024-01-15T03:47:10;93634.56;;;4.44;50.62
4469;BME280;2247;42.666;23.292;2024-01-15T03:49:38;93628.22;;;4.29;50.63
4469;BME280;2247;42.666;23.292;2024-01-15T03:52:06;93630.31;;;4.27;50.81
4469;BME280;2247;42.666;23.292;2024-01-15T03:54:33;93610.22;;;4.28;50.92
4469;BME280;2247;42.666;23.292;2024-01-15T03:57:00;93650.84;;;4.56;50.56
4469;BME280;2247;42.666;23.292;2024-01-15T03:59:27;93604.22;;;4.27;50.64
4469;BME280;2247;42.666;23.292;2024-01-15T04:01:54;93599.59;;;4.34;50.36
4469;BME280;2247;42.666;23.292;2024-01-15T04:04:22;93572.41;;;4.25;50.39
4469;BME280;2247;42.666;23.292;2024-01-15T04:06:51;93624.25;;;4.64;50.06
4469;BME280;2247;42.666;23.292;2024-01-15T04:09:18;93619.66;;;4.86;49.74
4469;BME280;2247;42.666;23.292;2024-01-15T04:11:46;93598.50;;;4.78;49.65
4469;BME280;2247;42.666;23.292;2024-01-15T04:14:12;93585.66;;;4.66;49.70
4469;BME280;2247;42.666;23.292;2024-01-15T04:16:39;93589.22;;;4.50;49.69
4469;BME280;2247;42.666;23.292;2024-01-15T04:19:07;93614.88;;;4.63;49.87
4469;BME280;2247;42.666;23.292;2024-01-15T04:21:34;93624.81;;;4.71;49.99
4469;BME280;2247;42.666;23.292;2024-01-15T04:24:02;93619.03;;;4.64;50.14
4469;BME280;2247;42.666;23.292;2024-01-15T04:26:29;93632.84;;;4.59;50.27
4469;BME280;2247;42.666;23.292;2024-01-15T04:28:56;93624.22;;;4.54;50.52
4469;BME280;2247;42.666;23.292;2024-01-15T04:31:25;93627.81;;;4.48;50.99
4469;BME280;2247;42.666;23.292;2024-01-15T04:33:52;93635.09;;;4.41;51.10
4469;BME280;2247;42.666;23.292;2024-01-15T04:36:19;93625.66;;;4.34;51.39
4469;BME280;2247;42.666;23.292;2024-01-15T04:38:46;93622.97;;;4.24;51.61
4469;BME280;2247;42.666;23.292;2024-01-15T04:41:16;93628.94;;;4.20;52.00
4469;BME280;2247;42.666;23.292;2024-01-15T04:43:43;93628.16;;;4.19;51.86
4469;BME280;2247;42.666;23.292;2024-01-15T04:46:10;93620.91;;;4.26;51.64
4469;BME280;2247;42.666;23.292;2024-01-15T04:48:37;93616.22;;;4.28;51.49
4469;BME280;2247;42.666;23.292;2024-01-15T04:51:04;93617.78;;;4.29;51.52
4469;BME280;2247;42.666;23.292;2024-01-15T04:53:34;93601.88;;;4.31;51.34
4469;BME280;2247;42.666;23.292;2024-01-15T04:56:01;93595.38;;;4.28;51.33
4469;BME280;2247;42.666;23.292;2024-01-15T04:58:29;93596.69;;;4.31;51.29
4469;BME280;2247;42.666;23.292;2024-01-15T05:00:56;93597.19;;;4.28;51.19
4469;BME280;2247;42.666;23.292;2024-01-15T05:03:23;93603.69;;;4.25;51.45
4469;BME280;2247;42.666;23.292;2024-01-15T05:05:50;93594.53;;;4.23;51.64
4469;BME280;2247;42.666;23.292;2024-01-15T05:08:17;93595.31;;;4.23;51.57
4469;BME280;2247;42.666;23.292;2024-01-15T05:10:44;93592.25;;;4.31;51.09
4469;BME280;2247;42.666;23.292;2024-01-15T05:13:11;93582.94;;;4.41;51.34
4469;BME280;2247;42.666;23.292;2024-01-15T05:15:39;93586.84;;;4.43;51.38
4469;BME280;2247;42.666;23.292;2024-01-15T05:18:06;93574.84;;;4.42;51.15
4469;BME280;2247;42.666;23.292;2024-01-15T05:20:33;93587.06;;;4.36;51.54
4469;BME280;2247;42.666;23.292;2024-01-15T05:23:00;93589.06;;;4.24;51.42
4469;BME280;2247;42.666;23.292;2024-01-15T05:25:27;93591.13;;;4.22;51.66
4469;BME280;2247;42.666;23.292;2024-01-15T05:27:54;93599.44;;;4.14;52.35
4469;BME280;2247;42.666;23.292;2024-01-15T05:30:21;93601.78;;;4.16;52.53
4469;BME280;2247;42.666;23.292;2024-01-15T05:32:50;93595.56;;;4.22;52.14
4469;BME280;2247;42.666;23.292;2024-01-15T05:35:17;93584.91;;;4.23;52.43
4469;BME280;2247;42.666;23.292;2024-01-15T05:37:45;93550.31;;;3.96;51.90
4469;BME280;2247;42.666;23.292;2024-01-15T05:40:12;93588.06;;;4.30;52.13
4469;BME280;2247;42.666;23.292;2024-01-15T05:42:40;93581.03;;;4.31;52.10
4469;BME280;2247;42.666;23.292;2024-01-15T05:45:07;93576.59;;;4.26;52.05
4469;BME280;2247;42.666;23.292;2024-01-15T05:47:34;93575.78;;;4.21;52.21
4469;BME280;2247;42.666;23.292;2024-01-15T05:50:03;93566.63;;;4.23;52.31
4469;BME280;2247;42.666;23.292;2024-01-15T05:52:30;93561.72;;;4.27;52.50
4469;BME280;2247;42.666;23.292;2024-01-15T05:54:57;93565.16;;;4.38;52.15
4469;BME280;2247;42.666;23.292;2024-01-15T05:57:24;93561.03;;;4.42;51.99
4469;BME280;2247;42.666;23.292;2024-01-15T05:59:51;93577.69;;;4.35;52.03
4469;BME280;2247;42.666;23.292;2024-01-15T06:02:18;93574.28;;;4.35;52.29
4469;BME280;2247;42.666;23.292;2024-01-15T06:04:45;93575.03;;;4.30;52.44
4469;BME280;2247;42.666;23.292;2024-01-15T06:07:14;93567.72;;;4.27;52.71
4469;BME280;2247;42.666;23.292;2024-01-15T06:09:41;93549.94;;;4.19;52.46
4469;BME280;2247;42.666;23.292;2024-01-15T06:12:08;93569.34;;;4.39;52.20
4469;BME280;2247;42.666;23.292;2024-01-15T06:14:35;93556.75;;;4.25;52.20
4469;BME280;2247;42.666;23.292;2024-01-15T06:17:02;93569.13;;;4.45;51.58
4469;BME280;2247;42.666;23.292;2024-01-15T06:19:29;93554.22;;;4.35;51.86
4469;BME280;2247;42.666;23.292;2024-01-15T06:21:56;93567.28;;;4.41;52.03
4469;BME280;2247;42.666;23.292;2024-01-15T06:24:24;93569.38;;;4.44;52.30
4469;BME280;2247;42.666;23.292;2024-01-15T06:26:51;93562.66;;;4.58;52.14
4469;BME280;2247;42.666;23.292;2024-01-15T06:29:18;93555.13;;;4.66;51.93
4469;BME280;2247;42.666;23.292;2024-01-15T06:31:45;93571.56;;;4.62;51.89
4469;BME280;2247;42.666;23.292;2024-01-15T06:34:12;93576.31;;;4.70;51.79
4469;BME280;2247;42.666;23.292;2024-01-15T06:36:39;93571.41;;;4.84;51.34
4469;BME280;2247;42.666;23.292;2024-01-15T06:39:06;93570.09;;;4.86;50.97
4469;BME280;2247;42.666;23.292;2024-01-15T06:41:35;93573.22;;;4.88;50.91
4469;BME280;2247;42.666;23.292;2024-01-15T06:44:06;93571.41;;;4.89;51.05
4469;BME280;2247;42.666;23.292;2024-01-15T06:46:34;93567.50;;;4.91;51.20
4469;BME280;2247;42.666;23.292;2024-01-15T06:49:01;93576.41;;;5.05;51.02
4469;BME280;2247;42.666;23.292;2024-01-15T06:51:29;93569.66;;;5.20;50.91
4469;BME280;2247;42.666;23.292;2024-01-15T06:53:56;93569.41;;;5.21;50.74
4469;BME280;2247;42.666;23.292;2024-01-15T06:56:22;93567.34;;;5.18;50.45
4469;BME280;2247;42.666;23.292;2024-01-15T06:58:52;93579.06;;;5.15;50.42
4469;BME280;2247;42.666;23.292;2024-01-15T07:01:19;93566.31;;;5.24;50.50
4469;BME280;2247;42.666;23.292;2024-01-15T07:03:46;93590.34;;;5.36;50.73
4469;BME280;2247;42.666;23.292;2024-01-15T07:06:13;93574.44;;;5.43;51.63
4469;BME280;2247;42.666;23.292;2024-01-15T07:08:40;93555.03;;;5.08;49.93
4469;BME280;2247;42.666;23.292;2024-01-15T07:11:07;93566.81;;;5.26;50.49
4469;BME280;2247;42.666;23.292;2024-01-15T07:13:36;93592.19;;;5.36;50.06
4469;BME280;2247;42.666;23.292;2024-01-15T07:16:05;93588.53;;;5.42;50.06
4469;BME280;2247;42.666;23.292;2024-01-15T07:18:32;93573.91;;;5.41;49.63
4469;BME280;2247;42.666;23.292;2024-01-15T07:20:59;93581.75;;;5.46;49.31
4469;BME280;2247;42.666;23.292;2024-01-15T07:23:28;93567.63;;;5.47;48.79
4469;BME280;2247;42.666;23.292;2024-01-15T07:25:55;93567.13;;;5.45;48.88
4469;BME280;2247;42.666;23.292;2024-01-15T07:28:22;93562.41;;;5.42;49.04
4469;BME280;2247;42.666;23.292;2024-01-15T07:30:49;93552.75;;;5.32;49.19
4469;BME280;2247;42.666;23.292;2024-01-15T07:33:17;93565.25;;;5.30;49.32
4469;BME280;2247;42.666;23.292;2024-01-15T07:35:44;93555.59;;;5.36;49.09
4469;BME280;2247;42.666;23.292;2024-01-15T07:38:12;93554.56;;;5.47;48.78
4469;BME280;2247;42.666;23.292;2024-01-15T07:40:39;93557.72;;;5.44;48.74
4469;BME280;2247;42.666;23.292;2024-01-15T07:43:06;93569.19;;;5.38;49.61
4469;BME280;2247;42.666;23.292;2024-01-15T07:45:34;93570.78;;;5.49;49.68
4469;BME280;2247;42.666;23.292;2024-01-15T07:48:01;93566.88;;;5.62;49.03
4469;BME280;2247;42.666;23.292;2024-01-15T07:50:31;93583.88;;;5.59;48.83
4469;BME280;2247;42.666;23.292;2024-01-15T07:52:57;93571.56;;;5.54;49.34
4469;BME280;2247;42.666;23.292;2024-01-15T07:55:24;93589.06;;;5.54;49.62
4469;BME280;2247;42.666;23.292;2024-01-15T07:57:51;93560.59;;;5.58;49.59
4469;BME280;2247;42.666;23.292;2024-01-15T08:00:19;93552.50;;;5.49;49.65
4469;BME280;2247;42.666;23.292;2024-01-15T08:02:46;93542.84;;;5.44;49.73
4469;BME280;2247;42.666;23.292;2024-01-15T08:05:13;93543.09;;;5.43;49.48
4469;BME280;2247;42.666;23.292;2024-01-15T08:07:41;93553.50;;;5.33;48.86
4469;BME280;2247;42.666;23.292;2024-01-15T08:10:09;93556.38;;;5.26;49.50
4469;BME280;2247;42.666;23.292;2024-01-15T08:12:36;93561.09;;;5.34;49.56
4469;BME280;2247;42.666;23.292;2024-01-15T08:15:04;93561.88;;;5.30;49.39
4469;BME280;2247;42.666;23.292;2024-01-15T08:17:31;93567.63;;;5.32;49.18
4469;BME280;2247;42.666;23.292;2024-01-15T08:19:58;93573.63;;;5.37;49.03
4469;BME280;2247;42.666;23.292;2024-01-15T08:22:26;93542.81;;;5.29;48.79
4469;BME280;2247;42.666;23.292;2024-01-15T08:24:55;93581.25;;;5.59;48.57
4469;BME280;2247;42.666;23.292;2024-01-15T08:27:22;93581.22;;;5.44;48.68
4469;BME280;2247;42.666;23.292;2024-01-15T08:29:49;93583.31;;;5.42;49.01
4469;BME280;2247;42.666;23.292;2024-01-15T08:32:16;93581.47;;;5.42;49.03
4469;BME280;2247;42.666;23.292;2024-01-15T08:34:43;93572.06;;;5.46;49.19
4469;BME280;2247;42.666;23.292;2024-01-15T08:37:12;93556.69;;;5.45;49.13
4469;BME280;2247;42.666;23.292;2024-01-15T08:39:39;93549.88;;;5.39;48.99
4469;BME280;2247;42.666;23.292;2024-01-15T08:42:07;93552.50;;;5.39;49.07
4469;BME280;2247;42.666;23.292;2024-01-15T08:44:34;93550.13;;;5.47;48.97
4469;BME280;2247;42.666;23.292;2024-01-15T08:47:01;93538.63;;;5.53;48.75
4469;BME280;2247;42.666;23.292;2024-01-15T08:49:28;93503.38;;;5.51;48.37
4469;BME280;2247;42.666;23.292;2024-01-15T08:51:55;93548.88;;;6.01;47.89
4469;BME280;2247;42.666;23.292;2024-01-15T08:54:22;93538.94;;;6.13;47.72
4469;BME280;2247;42.666;23.292;2024-01-15T08:56:49;93533.69;;;6.18;47.38
4469;BME280;2247;42.666;23.292;2024-01-15T08:59:17;93529.97;;;6.39;47.10
4469;BME280;2247;42.666;23.292;2024-01-15T09:01:50;93517.69;;;6.40;47.10
4469;BME280;2247;42.666;23.292;2024-01-15T09:04:17;93514.81;;;6.41;46.83
4469;BME280;2247;42.666;23.292;2024-01-15T09:06:45;93506.47;;;6.34;47.06
4469;BME280;2247;42.666;23.292;2024-01-15T09:09:12;93517.16;;;6.38;46.69
4469;BME280;2247;42.666;23.292;2024-01-15T09:11:39;93496.22;;;6.48;46.89
4469;BME280;2247;42.666;23.292;2024-01-15T09:14:06;93472.63;;;6.53;46.81
4469;BME280;2247;42.666;23.292;2024-01-15T09:16:35;93442.63;;;6.30;46.60
4469;BME280;2247;42.666;23.292;2024-01-15T09:19:02;93467.94;;;6.50;46.64
4469;BME280;2247;42.666;23.292;2024-01-15T09:21:30;93458.94;;;6.71;46.26
4469;BME280;2247;42.666;23.292;2024-01-15T09:23:57;93458.66;;;6.78;45.99
4469;BME280;2247;42.666;23.292;2024-01-15T09:26:24;93464.91;;;6.82;46.18
4469;BME280;2247;42.666;23.292;2024-01-15T09:28:51;93444.50;;;6.79;46.16
4469;BME280;2247;42.666;23.292;2024-01-15T09:31:18;93447.34;;;6.87;45.74
4469;BME280;2247;42.666;23.292;2024-01-15T09:33:47;93449.09;;;7.02;45.58
4469;BME280;2247;42.666;23.292;2024-01-15T09:36:14;93436.56;;;6.94;45.08
4469;BME280;2247;42.666;23.292;2024-01-15T09:38:41;93438.31;;;7.08;45.08
4469;BME280;2247;42.666;23.292;2024-01-15T09:41:08;93433.09;;;7.03;45.05
4469;BME280;2247;42.666;23.292;2024-01-15T09:43:36;93438.13;;;6.95;45.28
4469;BME280;2247;42.666;23.292;2024-01-15T09:46:04;93427.13;;;6.98;45.69
4469;BME280;2247;42.666;23.292;2024-01-15T09:48:31;93426.59;;;6.96;46.26
4469;BME280;2247;42.666;23.292;2024-01-15T09:51:01;93403.03;;;6.96;45.35
4469;BME280;2247;42.666;23.292;2024-01-15T09:53:28;93382.22;;;6.76;45.67
4469;BME280;2247;42.666;23.292;2024-01-15T09:55:56;93390.31;;;6.79;46.63
4469;BME280;2247;42.666;23.292;2024-01-15T09:58:23;93391.56;;;6.87;46.37
4469;BME280;2247;42.666;23.292;2024-01-15T10:00:51;93397.31;;;6.89;46.23
4469;BME280;2247;42.666;23.292;2024-01-15T10:03:18;93390.78;;;6.91;45.48
4469;BME280;2247;42.666;23.292;2024-01-15T10:05:46;93346.28;;;6.47;45.47
4469;BME280;2247;42.666;23.292;2024-01-15T10:08:16;93379.69;;;6.60;45.90
4469;BME280;2247;42.666;23.292;2024-01-15T10:10:43;93395.44;;;6.94;45.69
4469;BME280;2247;42.666;23.292;2024-01-15T10:13:11;93382.59;;;6.98;45.45
4469;BME280;2247;42.666;23.292;2024-01-15T10:15:40;93375.50;;;6.98;45.52
4469;BME280;2247;42.666;23.292;2024-01-15T10:18:08;93374.41;;;7.09;45.86
4469;BME280;2247;42.666;23.292;2024-01-15T10:20:36;93367.00;;;7.17;45.68
4469;BME280;2247;42.666;23.292;2024-01-15T10:23:04;93369.25;;;7.28;45.33
4469;BME280;2247;42.666;23.292;2024-01-15T10:25:33;93356.22;;;7.23;43.77
4469;BME280;2247;42.666;23.292;2024-01-15T10:28:02;93349.25;;;7.08;44.10
4469;BME280;2247;42.666;23.292;2024-01-15T10:30:30;93330.56;;;6.86;44.67
4469;BME280;2247;42.666;23.292;2024-01-15T10:32:57;93335.94;;;7.05;44.18
4469;BME280;2247;42.666;23.292;2024-01-15T10:35:29;93337.84;;;6.94;44.80
4469;BME280;2247;42.666;23.292;2024-01-15T10:37:56;93340.09;;;7.06;44.44
4469;BME280;2247;42.666;23.292;2024-01-15T10:40:23;93327.19;;;7.15;44.30
4469;BME280;2247;42.666;23.292;2024-01-15T10:42:51;93344.69;;;7.19;44.47
4469;BME280;2247;42.666;23.292;2024-01-15T10:45:19;93350.31;;;7.36;44.42
4469;BME280;2247;42.666;23.292;2024-01-15T10:47:46;93331.78;;;7.28;44.12
4469;BME280;2247;42.666;23.292;2024-01-15T10:50:14;93324.63;;;7.38;43.76
4469;BME280;2247;42.666;23.292;2024-01-15T10:52:42;93325.13;;;7.40;43.79
4469;BME280;2247;42.666;23.292;2024-01-15T10:55:10;93313.03;;;7.44;43.82
4469;BME280;2247;42.666;23.292;2024-01-15T10:57:37;93326.03;;;7.55;43.50
4469;BME280;2247;42.666;23.292;2024-01-15T11:00:07;93318.84;;;7.65;43.75
4469;BME280;2247;42.666;23.292;2024-01-15T11:02:40;93294.19;;;7.42;43.96
4469;BME280;2247;42.666;23.292;2024-01-15T11:05:10;93288.34;;;7.74;42.97
4469;BME280;2247;42.666;23.292;2024-01-15T11:07:39;93308.31;;;7.70;43.07
4469;BME280;2247;42.666;23.292;2024-01-15T11:10:07;93306.63;;;7.56;43.70
4469;BME280;2247;42.666;23.292;2024-01-15T11:12:35;93295.59;;;7.59;43.79
4469;BME280;2247;42.666;23.292;2024-01-15T11:15:03;93298.25;;;7.77;43.55
4469;BME280;2247;42.666;23.292;2024-01-15T11:18:00;93282.47;;;7.82;43.17
4469;BME280;2247;42.666;23.292;2024-01-15T11:20:29;93290.56;;;7.86;43.91
4469;BME280;2247;42.666;23.292;2024-01-15T11:22:56;93280.38;;;8.03;43.53
4469;BME280;2247;42.666;23.292;2024-01-15T11:25:34;93287.28;;;8.18;42.79
4469;BME280;2247;42.666;23.292;2024-01-15T11:28:04;93272.19;;;8.28;42.74
4469;BME280;2247;42.666;23.292;2024-01-15T11:30:31;93271.97;;;8.25;42.10
4469;BME280;2247;42.666;23.292;2024-01-15T11:33:03;93283.06;;;8.41;41.82
4469;BME280;2247;42.666;23.292;2024-01-15T11:35:48;93270.91;;;8.45;42.32
4469;BME280;2247;42.666;23.292;2024-01-15T11:38:27;93270.69;;;8.60;42.32
4469;BME280;2247;42.666;23.292;2024-01-15T11:40:55;93268.75;;;8.65;42.08
4469;BME280;2247;42.666;23.292;2024-01-15T11:43:23;93260.47;;;8.77;42.03
4469;BME280;2247;42.666;23.292;2024-01-15T11:45:52;93261.75;;;8.93;42.12
4469;BME280;2247;42.666;23.292;2024-01-15T11:48:20;93274.88;;;9.12;42.16
4469;BME280;2247;42.666;23.292;2024-01-15T11:50:50;93265.34;;;9.30;41.14
4469;BME280;2247;42.666;23.292;2024-01-15T11:53:24;93253.16;;;9.34;40.82
4469;BME280;2247;42.666;23.292;2024-01-15T11:55:57;93258.34;;;9.39;40.61
4469;BME280;2247;42.666;23.292;2024-01-15T11:58:25;93234.59;;;9.44;40.58
4469;BME280;2247;42.666;23.292;2024-01-15T12:00:52;93237.72;;;9.46;40.19
4469;BME280;2247;42.666;23.292;2024-01-15T12:03:22;93220.19;;;9.41;40.64
4469;BME280;2247;42.666;23.292;2024-01-15T12:05:49;93243.75;;;9.60;40.29
4469;BME280;2247;42.666;23.292;2024-01-15T12:08:21;93242.66;;;9.61;40.54
4469;BME280;2247;42.666;23.292;2024-01-15T12:10:48;93221.34;;;9.63;40.44
4469;BME280;2247;42.666;23.292;2024-01-15T12:13:15;93207.03;;;9.55;40.23
4469;BME280;2247;42.666;23.292;2024-01-15T12:15:44;93212.19;;;9.19;40.39
4469;BME280;2247;42.666;23.292;2024-01-15T12:18:13;93239.72;;;9.22;41.26
4469;BME280;2247;42.666;23.292;2024-01-15T12:20:43;93181.06;;;9.13;41.08
4469;BME280;2247;42.666;23.292;2024-01-15T12:23:12;93226.75;;;8.98;41.93
4469;BME280;2247;42.666;23.292;2024-01-15T12:25:39;93230.84;;;9.04;42.02
4469;BME280;2247;42.666;23.292;2024-01-15T12:28:06;93228.00;;;9.00;42.42
4469;BME280;2247;42.666;23.292;2024-01-15T12:30:34;93217.03;;;8.98;42.31
4469;BME280;2247;42.666;23.292;2024-01-15T12:33:03;93225.91;;;9.16;42.05
4469;BME280;2247;42.666;23.292;2024-01-15T12:35:30;93213.44;;;9.22;41.81
4469;BME280;2247;42.666;23.292;2024-01-15T12:37:59;93184.81;;;9.20;41.33
4469;BME280;2247;42.666;23.292;2024-01-15T12:40:27;93190.78;;;9.12;41.70
4469;BME280;2247;42.666;23.292;2024-01-15T12:42:55;93205.56;;;9.08;42.24
4469;BME280;2247;42.666;23.292;2024-01-15T12:45:22;93202.25;;;9.16;42.44
4469;BME280;2247;42.666;23.292;2024-01-15T12:47:49;93208.69;;;9.24;42.37
4469;BME280;2247;42.666;23.292;2024-01-15T12:50:17;93175.97;;;9.30;41.79
4469;BME280;2247;42.666;23.292;2024-01-15T12:52:44;93202.03;;;8.99;41.95
4469;BME280;2247;42.666;23.292;2024-01-15T12:55:13;93205.91;;;8.88;42.82
4469;BME280;2247;42.666;23.292;2024-01-15T12:57:40;93191.34;;;8.95;42.92
4469;BME280;2247;42.666;23.292;2024-01-15T13:00:07;93189.59;;;9.04;42.79
4469;BME280;2247;42.666;23.292;2024-01-15T13:02:38;93178.03;;;9.05;42.63
4469;BME280;2247;42.666;23.292;2024-01-15T13:05:08;93170.22;;;9.14;42.15
4469;BME280;2247;42.666;23.292;2024-01-15T13:07:36;93159.16;;;9.17;41.90
4469;BME280;2247;42.666;23.292;2024-01-15T13:10:03;93178.59;;;9.02;42.01
4469;BME280;2247;42.666;23.292;2024-01-15T13:12:33;93169.75;;;8.98;42.23
4469;BME280;2247;42.666;23.292;2024-01-15T13:15:00;93162.34;;;9.00;41.95
4469;BME280;2247;42.666;23.292;2024-01-15T13:17:28;93169.66;;;9.03;42.76
4469;BME280;2247;42.666;23.292;2024-01-15T13:19:56;93166.34;;;9.12;42.34
4469;BME280;2247;42.666;23.292;2024-01-15T13:22:22;93167.31;;;9.16;42.11
4469;BME280;2247;42.666;23.292;2024-01-15T13:24:55;93167.31;;;9.16;42.54